Aviation Digital Data Service (ADDS)

Output produced by METARs form (0711 UTC 28 September 2022)
found at http://www.aviationweather.gov/metar/data/
 
NSFA 280600Z 03007KT 9999 FEW026 SCT180 27/25 Q1011
NSFA 280500Z 02005KT 9999 FEW023 BKN170 29/25 Q1010
NSFA 280400Z 01006KT 9999 FEW020TCU SCT024 BKN040 31/25 Q1010 RMK TCU TO SE
NSFA 280300Z 02007KT 9999 BKN020 31/25 Q1009
NSFA 280200Z 33007KT 9999 FEW020 BKN036 31/25 Q1011
NSFA 280100Z 33006KT 9999 SCT024 32/25 Q1012
NSFA 280000Z 01007KT 9999 SCT018 31/25 Q1013
NSFA 272300Z 04007KT 9999 SCT025 30/24 Q1014
NSFA 272200Z 01007KT 330V100 9999 SCT026 30/24 Q1014
NSFA 272100Z 05006KT 9999 FEW024CB FEW028 29/25 Q1014 RMK CB TO ESE
NSFA 272000Z 05006KT 9999 FEW036 29/25 Q1014
NSFA 271900Z 04004KT 9999 FEW034 29/24 Q1014
NSFA 271800Z 12003KT 9999 FEW032 24/22 Q1014
NSFA 271700Z 12003KT 9999 FEW028 23/22 Q1012
NSFA 271500Z 09005KT 9999 FEW026 24/22 Q1012
NSFA 271400Z 10005KT 9999 FEW028 24/22 Q1012
NSFA 271300Z 10006KT 9999 FEW032 24/22 Q1012
NSFA 271200Z 10006KT 9999 FEW030 24/22 Q1013
NSFA 271100Z 09006KT 9999 FEW030 24/22 Q1014
NSFA 271000Z 08007KT 9999 FEW028 24/23 Q1014
NSFA 270900Z 08007KT 9999 FEW028 24/23 Q1014
NSFA 270800Z 07005KT 9999 FEW026 25/23 Q1013
TAF NSFA 280519Z 2806/2906 02005KT 9999 FEW024